sensor_id;sensor_type;location;lat;lon;timestamp;temperature;humidity
5901;DHT22;2976;49.764;9.796;2023-07-16T00:01:55;19.20;99.90
5901;DHT22;2976;49.764;9.796;2023-07-16T00:04:21;19.20;99.90
5901;DHT22;2976;49.764;9.796;2023-07-16T00:06:47;19.20;99.90
5901;DHT22;2976;49.764;9.796;2023-07-16T00:09:13;19.20;99.90
5901;DHT22;2976;49.764;9.796;2023-07-16T00:11:38;19.20;99.90
5901;DHT22;2976;49.764;9.796;2023-07-16T00:14:04;19.20;99.90
5901;DHT22;2976;49.764;9.796;2023-07-16T00:16:30;19.10;99.90
5901;DHT22;2976;49.764;9.796;2023-07-16T00:18:56;19.00;99.90
5901;DHT22;2976;49.764;9.796;2023-07-16T00:21:21;19.00;99.90
5901;DHT22;2976;49.764;9.796;2023-07-16T00:23:47;19.00;99.90
5901;DHT22;2976;49.764;9.796;2023-07-16T00:26:13;19.00;99.90
5901;DHT22;2976;49.764;9.796;2023-07-16T00:28:39;19.00;99.90
5901;DHT22;2976;49.764;9.796;2023-07-16T00:31:04;18.90;99.90
5901;DHT22;2976;49.764;9.796;2023-07-16T00:33:30;18.90;99.90
5901;DHT22;2976;49.764;9.796;2023-07-16T00:35:55;18.90;99.90
5901;DHT22;2976;49.764;9.796;2023-07-16T00:38:21;18.80;99.90
5901;DHT22;2976;49.764;9.796;2023-07-16T00:40:47;18.70;99.90
5901;DHT22;2976;49.764;9.796;2023-07-16T00:43:13;18.70;99.90
5901;DHT22;2976;49.764;9.796;2023-07-16T00:45:40;18.80;99.90
5901;DHT22;2976;49.764;9.796;2023-07-16T00:48:06;18.80;99.90
5901;DHT22;2976;49.764;9.796;2023-07-16T00:50:33;18.80;99.90
5901;DHT22;2976;49.764;9.796;2023-07-16T00:53:03;18.70;99.90
5901;DHT22;2976;49.764;9.796;2023-07-16T00:55:31;18.60;99.90
5901;DHT22;2976;49.764;9.796;2023-07-16T00:58:01;18.70;99.90
5901;DHT22;2976;49.764;9.796;2023-07-16T01:00:37;18.60;99.90
5901;DHT22;2976;49.764;9.796;2023-07-16T01:03:08;18.60;99.90
5901;DHT22;2976;49.764;9.796;2023-07-16T01:05:40;18.70;99.90
5901;DHT22;2976;49.764;9.796;2023-07-16T01:08:09;18.70;99.90
5901;DHT22;2976;49.764;9.796;2023-07-16T01:10:37;18.80;99.90
5901;DHT22;2976;49.764;9.796;2023-07-16T01:13:03;18.80;99.90
5901;DHT22;2976;49.764;9.796;2023-07-16T01:15:29;18.70;99.90
5901;DHT22;2976;49.764;9.796;2023-07-16T01:17:55;18.70;99.90
5901;DHT22;2976;49.764;9.796;2023-07-16T01:20:21;18.80;99.90
5901;DHT22;2976;49.764;9.796;2023-07-16T01:30:49;18.70;99.90
5901;DHT22;2976;49.764;9.796;2023-07-16T01:33:16;18.70;99.90
5901;DHT22;2976;49.764;9.796;2023-07-16T01:35:43;18.80;99.90
5901;DHT22;2976;49.764;9.796;2023-07-16T01:38:11;18.80;99.90
5901;DHT22;2976;49.764;9.796;2023-07-16T01:40:36;18.80;99.90
5901;DHT22;2976;49.764;9.796;2023-07-16T01:43:02;18.70;99.90
5901;DHT22;2976;49.764;9.796;2023-07-16T01:45:27;18.70;99.90
5901;DHT22;2976;49.764;9.796;2023-07-16T01:50:32;18.70;99.90
5901;DHT22;2976;49.764;9.796;2023-07-16T01:52:58;18.70;99.90
5901;DHT22;2976;49.764;9.796;2023-07-16T01:55:24;18.70;99.90
5901;DHT22;2976;49.764;9.796;2023-07-16T01:57:49;18.70;99.90
5901;DHT22;2976;49.764;9.796;2023-07-16T02:00:15;18.70;99.90
5901;DHT22;2976;49.764;9.796;2023-07-16T02:02:40;18.60;99.90
5901;DHT22;2976;49.764;9.796;2023-07-16T02:05:06;18.60;99.90
5901;DHT22;2976;49.764;9.796;2023-07-16T02:07:31;18.60;99.90
5901;DHT22;2976;49.764;9.796;2023-07-16T02:09:57;18.60;99.90
5901;DHT22;2976;49.764;9.796;2023-07-16T02:12:23;18.50;99.90
5901;DHT22;2976;49.764;9.796;2023-07-16T02:14:48;18.50;99.90
5901;DHT22;2976;49.764;9.796;2023-07-16T02:17:14;18.50;99.90
5901;DHT22;2976;49.764;9.796;2023-07-16T02:19:39;18.40;99.90
5901;DHT22;2976;49.764;9.796;2023-07-16T02:22:05;18.40;99.90
5901;DHT22;2976;49.764;9.796;2023-07-16T02:24:30;18.40;99.90
5901;DHT22;2976;49.764;9.796;2023-07-16T02:26:56;18.40;99.90
5901;DHT22;2976;49.764;9.796;2023-07-16T02:29:21;18.40;99.90
5901;DHT22;2976;49.764;9.796;2023-07-16T02:31:47;18.30;99.90
5901;DHT22;2976;49.764;9.796;2023-07-16T02:34:14;18.30;99.90
5901;DHT22;2976;49.764;9.796;2023-07-16T02:36:39;18.30;99.90
5901;DHT22;2976;49.764;9.796;2023-07-16T02:39:05;18.30;99.90
5901;DHT22;2976;49.764;9.796;2023-07-16T02:41:30;18.30;99.90
5901;DHT22;2976;49.764;9.796;2023-07-16T02:44:00;18.20;99.90
5901;DHT22;2976;49.764;9.796;2023-07-16T02:46:26;18.20;99.90
5901;DHT22;2976;49.764;9.796;2023-07-16T02:48:52;18.20;99.90
5901;DHT22;2976;49.764;9.796;2023-07-16T02:51:17;18.20;99.90
5901;DHT22;2976;49.764;9.796;2023-07-16T02:53:43;18.10;99.90
5901;DHT22;2976;49.764;9.796;2023-07-16T02:56:08;18.00;99.90
5901;DHT22;2976;49.764;9.796;2023-07-16T02:58:34;18.00;99.90
5901;DHT22;2976;49.764;9.796;2023-07-16T03:01:00;18.00;99.90
5901;DHT22;2976;49.764;9.796;2023-07-16T03:03:25;18.00;99.90
5901;DHT22;2976;49.764;9.796;2023-07-16T03:05:51;17.90;99.90
5901;DHT22;2976;49.764;9.796;2023-07-16T03:08:16;17.80;99.90
5901;DHT22;2976;49.764;9.796;2023-07-16T03:10:42;17.80;99.90
5901;DHT22;2976;49.764;9.796;2023-07-16T03:13:07;17.70;99.90
5901;DHT22;2976;49.764;9.796;2023-07-16T03:15:33;17.70;99.90
5901;DHT22;2976;49.764;9.796;2023-07-16T03:17:58;17.60;99.90
5901;DHT22;2976;49.764;9.796;2023-07-16T03:20:24;17.60;99.90
5901;DHT22;2976;49.764;9.796;2023-07-16T03:22:49;17.70;99.90
5901;DHT22;2976;49.764;9.796;2023-07-16T03:25:15;17.60;99.90
5901;DHT22;2976;49.764;9.796;2023-07-16T03:27:41;17.60;99.90
5901;DHT22;2976;49.764;9.796;2023-07-16T03:30:07;17.60;99.90
5901;DHT22;2976;49.764;9.796;2023-07-16T03:32:32;17.50;99.90
5901;DHT22;2976;49.764;9.796;2023-07-16T03:34:58;17.40;99.90
5901;DHT22;2976;49.764;9.796;2023-07-16T03:37:23;17.40;99.90
5901;DHT22;2976;49.764;9.796;2023-07-16T03:39:49;17.40;99.90
5901;DHT22;2976;49.764;9.796;2023-07-16T03:42:14;17.30;99.90
5901;DHT22;2976;49.764;9.796;2023-07-16T03:44:40;17.30;99.90
5901;DHT22;2976;49.764;9.796;2023-07-16T03:47:06;17.20;99.90
5901;DHT22;2976;49.764;9.796;2023-07-16T03:49:31;17.30;99.90
5901;DHT22;2976;49.764;9.796;2023-07-16T03:51:57;17.30;99.90
5901;DHT22;2976;49.764;9.796;2023-07-16T03:54:22;17.30;99.90
5901;DHT22;2976;49.764;9.796;2023-07-16T03:56:48;17.20;99.90
5901;DHT22;2976;49.764;9.796;2023-07-16T03:59:13;17.20;99.90
5901;DHT22;2976;49.764;9.796;2023-07-16T04:01:39;17.20;99.90
5901;DHT22;2976;49.764;9.796;2023-07-16T04:04:04;17.20;99.90
5901;DHT22;2976;49.764;9.796;2023-07-16T04:06:30;17.20;99.90
5901;DHT22;2976;49.764;9.796;2023-07-16T04:08:55;17.30;99.90
5901;DHT22;2976;49.764;9.796;2023-07-16T04:11:21;17.30;99.90
5901;DHT22;2976;49.764;9.796;2023-07-16T04:13:46;17.40;99.90
5901;DHT22;2976;49.764;9.796;2023-07-16T04:16:12;17.40;99.90
5901;DHT22;2976;49.764;9.796;2023-07-16T04:18:37;17.40;99.90
5901;DHT22;2976;49.764;9.796;2023-07-16T04:21:03;17.40;99.90
5901;DHT22;2976;49.764;9.796;2023-07-16T04:23:29;17.40;99.90
5901;DHT22;2976;49.764;9.796;2023-07-16T04:25:55;17.40;99.90
5901;DHT22;2976;49.764;9.796;2023-07-16T04:28:21;17.50;99.90
5901;DHT22;2976;49.764;9.796;2023-07-16T04:30:46;17.50;99.90
5901;DHT22;2976;49.764;9.796;2023-07-16T04:33:12;17.50;99.90
5901;DHT22;2976;49.764;9.796;2023-07-16T04:35:37;17.60;99.90
5901;DHT22;2976;49.764;9.796;2023-07-16T04:38:03;18.10;99.90
5901;DHT22;2976;49.764;9.796;2023-07-16T04:40:29;18.80;99.90
5901;DHT22;2976;49.764;9.796;2023-07-16T04:42:55;19.10;99.90
5901;DHT22;2976;49.764;9.796;2023-07-16T04:45:21;19.20;99.90
5901;DHT22;2976;49.764;9.796;2023-07-16T04:47:47;18.80;99.90
5901;DHT22;2976;49.764;9.796;2023-07-16T04:50:12;18.50;99.90
5901;DHT22;2976;49.764;9.796;2023-07-16T04:52:39;18.30;99.90
5901;DHT22;2976;49.764;9.796;2023-07-16T04:55:05;18.00;99.90
5901;DHT22;2976;49.764;9.796;2023-07-16T04:57:32;17.90;99.90
5901;DHT22;2976;49.764;9.796;2023-07-16T04:59:58;17.90;99.90
5901;DHT22;2976;49.764;9.796;2023-07-16T05:02:23;17.90;99.90
5901;DHT22;2976;49.764;9.796;2023-07-16T05:04:49;17.80;99.90
5901;DHT22;2976;49.764;9.796;2023-07-16T05:07:14;17.90;99.90
5901;DHT22;2976;49.764;9.796;2023-07-16T05:09:41;18.00;99.90
5901;DHT22;2976;49.764;9.796;2023-07-16T05:12:07;18.00;99.90
5901;DHT22;2976;49.764;9.796;2023-07-16T05:14:46;18.00;99.90
5901;DHT22;2976;49.764;9.796;2023-07-16T05:17:13;17.90;99.90
5901;DHT22;2976;49.764;9.796;2023-07-16T05:19:38;17.90;99.90
5901;DHT22;2976;49.764;9.796;2023-07-16T05:22:04;17.90;99.90
5901;DHT22;2976;49.764;9.796;2023-07-16T05:24:31;17.90;99.90
5901;DHT22;2976;49.764;9.796;2023-07-16T05:26:57;17.90;99.90
5901;DHT22;2976;49.764;9.796;2023-07-16T05:29:22;17.90;99.90
5901;DHT22;2976;49.764;9.796;2023-07-16T05:31:48;17.90;99.90
5901;DHT22;2976;49.764;9.796;2023-07-16T05:34:13;17.90;99.90
5901;DHT22;2976;49.764;9.796;2023-07-16T05:36:41;17.90;99.90
5901;DHT22;2976;49.764;9.796;2023-07-16T05:39:07;17.90;99.90
5901;DHT22;2976;49.764;9.796;2023-07-16T05:41:34;17.90;99.90
5901;DHT22;2976;49.764;9.796;2023-07-16T05:43:59;18.00;99.90
5901;DHT22;2976;49.764;9.796;2023-07-16T05:46:25;18.10;99.90
5901;DHT22;2976;49.764;9.796;2023-07-16T05:48:51;18.10;99.90
5901;DHT22;2976;49.764;9.796;2023-07-16T05:51:16;18.00;99.90
5901;DHT22;2976;49.764;9.796;2023-07-16T05:53:42;18.00;99.90
5901;DHT22;2976;49.764;9.796;2023-07-16T05:56:07;18.10;99.90
5901;DHT22;2976;49.764;9.796;2023-07-16T05:58:33;18.20;99.90
5901;DHT22;2976;49.764;9.796;2023-07-16T06:00:58;18.30;99.90
5901;DHT22;2976;49.764;9.796;2023-07-16T06:03:24;18.40;99.90
5901;DHT22;2976;49.764;9.796;2023-07-16T06:05:50;18.90;99.90
5901;DHT22;2976;49.764;9.796;2023-07-16T06:08:15;19.30;99.90
5901;DHT22;2976;49.764;9.796;2023-07-16T06:10:41;19.20;99.90
5901;DHT22;2976;49.764;9.796;2023-07-16T06:13:06;18.90;99.90
5901;DHT22;2976;49.764;9.796;2023-07-16T06:15:32;18.60;99.90
5901;DHT22;2976;49.764;9.796;2023-07-16T06:17:57;18.20;99.90
5901;DHT22;2976;49.764;9.796;2023-07-16T06:20:23;18.20;99.90
5901;DHT22;2976;49.764;9.796;2023-07-16T06:22:48;18.20;99.90
5901;DHT22;2976;49.764;9.796;2023-07-16T06:25:14;18.40;99.90
5901;DHT22;2976;49.764;9.796;2023-07-16T06:27:39;18.20;99.90
5901;DHT22;2976;49.764;9.796;2023-07-16T06:30:07;18.10;99.90
5901;DHT22;2976;49.764;9.796;2023-07-16T06:32:32;18.10;99.90
5901;DHT22;2976;49.764;9.796;2023-07-16T06:34:58;18.20;99.90
5901;DHT22;2976;49.764;9.796;2023-07-16T06:37:23;18.70;99.90
5901;DHT22;2976;49.764;9.796;2023-07-16T06:39:49;19.40;99.90
5901;DHT22;2976;49.764;9.796;2023-07-16T06:42:15;19.70;99.90
5901;DHT22;2976;49.764;9.796;2023-07-16T06:44:40;20.00;99.90
5901;DHT22;2976;49.764;9.796;2023-07-16T06:47:06;20.30;99.90
5901;DHT22;2976;49.764;9.796;2023-07-16T06:49:32;20.00;99.90
5901;DHT22;2976;49.764;9.796;2023-07-16T06:51:57;19.90;99.90
5901;DHT22;2976;49.764;9.796;2023-07-16T06:54:23;20.00;99.90
5901;DHT22;2976;49.764;9.796;2023-07-16T06:56:48;20.30;99.90
5901;DHT22;2976;49.764;9.796;2023-07-16T06:59:14;20.20;99.90
5901;DHT22;2976;49.764;9.796;2023-07-16T07:01:39;19.80;99.90
5901;DHT22;2976;49.764;9.796;2023-07-16T07:04:05;20.00;99.90
5901;DHT22;2976;49.764;9.796;2023-07-16T07:06:31;20.50;99.90
5901;DHT22;2976;49.764;9.796;2023-07-16T07:08:56;20.70;99.90
5901;DHT22;2976;49.764;9.796;2023-07-16T07:11:22;20.30;99.90
5901;DHT22;2976;49.764;9.796;2023-07-16T07:13:47;19.60;99.90
5901;DHT22;2976;49.764;9.796;2023-07-16T07:16:13;19.50;99.90
5901;DHT22;2976;49.764;9.796;2023-07-16T07:18:38;19.50;99.90
5901;DHT22;2976;49.764;9.796;2023-07-16T07:21:04;19.60;99.90
5901;DHT22;2976;49.764;9.796;2023-07-16T07:23:29;19.90;99.90
5901;DHT22;2976;49.764;9.796;2023-07-16T07:25:55;20.40;99.90
5901;DHT22;2976;49.764;9.796;2023-07-16T07:28:21;20.60;99.90
5901;DHT22;2976;49.764;9.796;2023-07-16T07:30:46;20.70;99.90
5901;DHT22;2976;49.764;9.796;2023-07-16T07:33:12;20.30;99.90
5901;DHT22;2976;49.764;9.796;2023-07-16T07:35:38;20.00;99.90
5901;DHT22;2976;49.764;9.796;2023-07-16T07:38:03;19.90;99.90
5901;DHT22;2976;49.764;9.796;2023-07-16T07:40:29;20.40;99.90
5901;DHT22;2976;49.764;9.796;2023-07-16T07:42:54;20.80;99.90
5901;DHT22;2976;49.764;9.796;2023-07-16T07:45:20;21.40;99.90
5901;DHT22;2976;49.764;9.796;2023-07-16T07:47:46;21.20;99.90
5901;DHT22;2976;49.764;9.796;2023-07-16T07:50:12;20.50;99.90
5901;DHT22;2976;49.764;9.796;2023-07-16T07:52:37;20.20;99.90
5901;DHT22;2976;49.764;9.796;2023-07-16T07:55:03;20.50;99.90
5901;DHT22;2976;49.764;9.796;2023-07-16T07:57:29;21.10;99.90
5901;DHT22;2976;49.764;9.796;2023-07-16T07:59:55;21.60;99.90
5901;DHT22;2976;49.764;9.796;2023-07-16T08:02:26;21.60;99.90
5901;DHT22;2976;49.764;9.796;2023-07-16T08:04:55;21.30;99.90
5901;DHT22;2976;49.764;9.796;2023-07-16T08:07:24;21.20;99.90
5901;DHT22;2976;49.764;9.796;2023-07-16T08:09:51;21.10;99.90
5901;DHT22;2976;49.764;9.796;2023-07-16T08:12:16;21.30;99.90
5901;DHT22;2976;49.764;9.796;2023-07-16T08:14:42;21.10;99.90
5901;DHT22;2976;49.764;9.796;2023-07-16T08:17:08;21.40;99.90
5901;DHT22;2976;49.764;9.796;2023-07-16T08:19:33;22.00;99.90
5901;DHT22;2976;49.764;9.796;2023-07-16T08:21:59;22.50;99.90
5901;DHT22;2976;49.764;9.796;2023-07-16T08:24:25;22.30;99.90
5901;DHT22;2976;49.764;9.796;2023-07-16T08:26:50;21.50;99.90
5901;DHT22;2976;49.764;9.796;2023-07-16T08:29:16;21.30;99.90
5901;DHT22;2976;49.764;9.796;2023-07-16T08:31:41;21.30;99.90
5901;DHT22;2976;49.764;9.796;2023-07-16T08:34:07;20.90;99.90
5901;DHT22;2976;49.764;9.796;2023-07-16T08:36:33;21.00;99.90
5901;DHT22;2976;49.764;9.796;2023-07-16T08:38:59;21.00;99.90
5901;DHT22;2976;49.764;9.796;2023-07-16T08:41:25;20.90;99.90
5901;DHT22;2976;49.764;9.796;2023-07-16T08:43:51;20.80;99.90
5901;DHT22;2976;49.764;9.796;2023-07-16T08:46:17;20.40;99.90
5901;DHT22;2976;49.764;9.796;2023-07-16T08:48:44;20.10;99.90
5901;DHT22;2976;49.764;9.796;2023-07-16T08:51:10;19.70;99.90
5901;DHT22;2976;49.764;9.796;2023-07-16T08:53:39;19.60;99.90
5901;DHT22;2976;49.764;9.796;2023-07-16T08:56:04;19.60;99.90
5901;DHT22;2976;49.764;9.796;2023-07-16T08:58:31;19.70;99.90
5901;DHT22;2976;49.764;9.796;2023-07-16T09:00:58;19.70;99.90
5901;DHT22;2976;49.764;9.796;2023-07-16T09:03:24;19.60;99.90
5901;DHT22;2976;49.764;9.796;2023-07-16T09:05:50;19.70;99.90
5901;DHT22;2976;49.764;9.796;2023-07-16T09:08:15;19.90;99.90
5901;DHT22;2976;49.764;9.796;2023-07-16T09:10:42;20.10;99.90
5901;DHT22;2976;49.764;9.796;2023-07-16T09:13:08;20.30;99.90
5901;DHT22;2976;49.764;9.796;2023-07-16T09:15:33;20.20;99.90
5901;DHT22;2976;49.764;9.796;2023-07-16T09:18:00;20.20;99.90
5901;DHT22;2976;49.764;9.796;2023-07-16T09:20:26;20.70;99.90
5901;DHT22;2976;49.764;9.796;2023-07-16T09:22:56;20.90;99.90
5901;DHT22;2976;49.764;9.796;2023-07-16T09:25:29;21.60;99.90
5901;DHT22;2976;49.764;9.796;2023-07-16T09:27:55;21.60;99.60
5901;DHT22;2976;49.764;9.796;2023-07-16T09:30:20;22.00;99.90
5901;DHT22;2976;49.764;9.796;2023-07-16T09:32:46;22.20;95.90
5901;DHT22;2976;49.764;9.796;2023-07-16T09:35:15;21.80;99.30
5901;DHT22;2976;49.764;9.796;2023-07-16T09:37:41;21.80;97.80
5901;DHT22;2976;49.764;9.796;2023-07-16T09:40:11;22.00;99.90
5901;DHT22;2976;49.764;9.796;2023-07-16T09:42:38;22.50;99.30
5901;DHT22;2976;49.764;9.796;2023-07-16T09:45:05;23.00;95.20
5901;DHT22;2976;49.764;9.796;2023-07-16T09:47:31;22.80;93.90
5901;DHT22;2976;49.764;9.796;2023-07-16T09:49:57;22.60;93.90
5901;DHT22;2976;49.764;9.796;2023-07-16T09:52:24;22.30;94.30
5901;DHT22;2976;49.764;9.796;2023-07-16T09:54:55;22.50;96.20
5901;DHT22;2976;49.764;9.796;2023-07-16T09:57:22;22.80;94.10
5901;DHT22;2976;49.764;9.796;2023-07-16T09:59:49;22.70;95.30
5901;DHT22;2976;49.764;9.796;2023-07-16T10:02:17;22.60;94.90
5901;DHT22;2976;49.764;9.796;2023-07-16T10:04:43;22.70;93.60
5901;DHT22;2976;49.764;9.796;2023-07-16T10:07:20;22.90;94.60
5901;DHT22;2976;49.764;9.796;2023-07-16T10:09:55;23.80;92.20
5901;DHT22;2976;49.764;9.796;2023-07-16T10:12:23;23.90;80.50
5901;DHT22;2976;49.764;9.796;2023-07-16T10:14:53;23.30;86.30
5901;DHT22;2976;49.764;9.796;2023-07-16T10:17:26;23.20;89.90
5901;DHT22;2976;49.764;9.796;2023-07-16T10:19:59;22.60;88.90
5901;DHT22;2976;49.764;9.796;2023-07-16T10:22:32;22.70;89.10
5901;DHT22;2976;49.764;9.796;2023-07-16T10:24:58;23.60;92.20
5901;DHT22;2976;49.764;9.796;2023-07-16T10:27:31;24.50;89.20
5901;DHT22;2976;49.764;9.796;2023-07-16T10:29:57;25.50;85.30
5901;DHT22;2976;49.764;9.796;2023-07-16T10:32:26;25.60;81.60
5901;DHT22;2976;49.764;9.796;2023-07-16T10:34:53;25.30;82.30
5901;DHT22;2976;49.764;9.796;2023-07-16T10:37:19;25.10;81.30
5901;DHT22;2976;49.764;9.796;2023-07-16T10:39:52;24.80;81.00
5901;DHT22;2976;49.764;9.796;2023-07-16T10:42:19;25.30;82.30
5901;DHT22;2976;49.764;9.796;2023-07-16T10:44:45;25.50;79.90
5901;DHT22;2976;49.764;9.796;2023-07-16T10:47:29;25.00;81.30
5901;DHT22;2976;49.764;9.796;2023-07-16T10:49:54;24.80;86.00
5901;DHT22;2976;49.764;9.796;2023-07-16T10:52:21;24.80;80.00
5901;DHT22;2976;49.764;9.796;2023-07-16T10:54:47;24.30;81.00
5901;DHT22;2976;49.764;9.796;2023-07-16T10:57:15;24.10;85.40
5901;DHT22;2976;49.764;9.796;2023-07-16T10:59:42;23.90;86.50
5901;DHT22;2976;49.764;9.796;2023-07-16T11:02:14;24.30;87.40
5901;DHT22;2976;49.764;9.796;2023-07-16T11:04:40;24.10;86.20
5901;DHT22;2976;49.764;9.796;2023-07-16T11:07:11;24.40;82.50
5901;DHT22;2976;49.764;9.796;2023-07-16T11:09:41;24.50;83.70
5901;DHT22;2976;49.764;9.796;2023-07-16T11:12:09;24.60;84.40
5901;DHT22;2976;49.764;9.796;2023-07-16T11:14:35;25.00;83.60
5901;DHT22;2976;49.764;9.796;2023-07-16T11:17:05;25.30;82.90
5901;DHT22;2976;49.764;9.796;2023-07-16T11:19:31;24.80;81.70
5901;DHT22;2976;49.764;9.796;2023-07-16T11:21:57;24.40;83.40
5901;DHT22;2976;49.764;9.796;2023-07-16T11:24:23;24.30;85.10
5901;DHT22;2976;49.764;9.796;2023-07-16T11:26:56;24.20;82.20
5901;DHT22;2976;49.764;9.796;2023-07-16T11:29:25;24.30;82.30
5901;DHT22;2976;49.764;9.796;2023-07-16T11:31:52;24.60;82.60
5901;DHT22;2976;49.764;9.796;2023-07-16T11:34:21;24.80;82.20
5901;DHT22;2976;49.764;9.796;2023-07-16T11:36:50;24.90;80.90
5901;DHT22;2976;49.764;9.796;2023-07-16T11:39:15;24.90;80.80
5901;DHT22;2976;49.764;9.796;2023-07-16T11:41:41;24.80;80.10
5901;DHT22;2976;49.764;9.796;2023-07-16T11:44:08;24.40;79.80
5901;DHT22;2976;49.764;9.796;2023-07-16T11:46:34;23.90;83.20
5901;DHT22;2976;49.764;9.796;2023-07-16T11:49:00;23.60;83.20
5901;DHT22;2976;49.764;9.796;2023-07-16T11:51:26;23.60;86.20
5901;DHT22;2976;49.764;9.796;2023-07-16T11:53:52;23.70;86.10
5901;DHT22;2976;49.764;9.796;2023-07-16T11:56:18;23.80;85.30
5901;DHT22;2976;49.764;9.796;2023-07-16T11:58:43;23.80;84.60
5901;DHT22;2976;49.764;9.796;2023-07-16T12:01:09;23.60;85.00
5901;DHT22;2976;49.764;9.796;2023-07-16T12:03:34;23.50;83.70
5901;DHT22;2976;49.764;9.796;2023-07-16T12:06:00;23.70;89.30
5901;DHT22;2976;49.764;9.796;2023-07-16T12:08:26;24.30;82.50
5901;DHT22;2976;49.764;9.796;2023-07-16T12:10:51;24.80;84.00
5901;DHT22;2976;49.764;9.796;2023-07-16T12:13:17;25.20;80.90
5901;DHT22;2976;49.764;9.796;2023-07-16T12:15:43;25.50;80.60
5901;DHT22;2976;49.764;9.796;2023-07-16T12:18:08;25.30;79.00
5901;DHT22;2976;49.764;9.796;2023-07-16T12:20:34;25.20;81.80
5901;DHT22;2976;49.764;9.796;2023-07-16T12:23:01;25.50;78.10
5901;DHT22;2976;49.764;9.796;2023-07-16T12:25:28;25.10;78.70
5901;DHT22;2976;49.764;9.796;2023-07-16T12:27:53;24.80;80.70
5901;DHT22;2976;49.764;9.796;2023-07-16T12:30:19;24.60;80.50
5901;DHT22;2976;49.764;9.796;2023-07-16T12:32:45;24.80;78.30
5901;DHT22;2976;49.764;9.796;2023-07-16T12:35:10;24.80;80.30
5901;DHT22;2976;49.764;9.796;2023-07-16T12:37:36;24.90;78.30
5901;DHT22;2976;49.764;9.796;2023-07-16T12:40:01;24.30;80.50
5901;DHT22;2976;49.764;9.796;2023-07-16T12:42:27;24.50;79.30
5901;DHT22;2976;49.764;9.796;2023-07-16T12:44:54;24.30;74.50
5901;DHT22;2976;49.764;9.796;2023-07-16T12:47:19;23.90;79.00
5901;DHT22;2976;49.764;9.796;2023-07-16T12:49:45;24.10;83.00
5901;DHT22;2976;49.764;9.796;2023-07-16T12:52:10;24.60;81.50
5901;DHT22;2976;49.764;9.796;2023-07-16T12:54:36;24.90;78.20
5901;DHT22;2976;49.764;9.796;2023-07-16T12:57:01;24.80;77.30
5901;DHT22;2976;49.764;9.796;2023-07-16T12:59:28;24.60;77.20
5901;DHT22;2976;49.764;9.796;2023-07-16T13:01:53;24.50;76.80
5901;DHT22;2976;49.764;9.796;2023-07-16T13:04:19;24.20;76.30
5901;DHT22;2976;49.764;9.796;2023-07-16T13:06:44;24.10;74.10
5901;DHT22;2976;49.764;9.796;2023-07-16T13:09:13;23.90;76.00
5901;DHT22;2976;49.764;9.796;2023-07-16T13:11:39;24.50;78.00
5901;DHT22;2976;49.764;9.796;2023-07-16T13:14:05;25.00;77.30
5901;DHT22;2976;49.764;9.796;2023-07-16T13:16:30;25.20;73.70
5901;DHT22;2976;49.764;9.796;2023-07-16T13:18:56;25.10;71.80
5901;DHT22;2976;49.764;9.796;2023-07-16T13:21:21;24.60;74.30
5901;DHT22;2976;49.764;9.796;2023-07-16T13:23:47;24.50;75.10
5901;DHT22;2976;49.764;9.796;2023-07-16T13:26:12;24.90;75.10
5901;DHT22;2976;49.764;9.796;2023-07-16T13:28:38;25.30;71.80
5901;DHT22;2976;49.764;9.796;2023-07-16T13:31:03;25.40;70.60
5901;DHT22;2976;49.764;9.796;2023-07-16T13:33:29;25.30;69.10
5901;DHT22;2976;49.764;9.796;2023-07-16T13:35:55;25.10;70.10
5901;DHT22;2976;49.764;9.796;2023-07-16T13:38:20;25.00;70.70
5901;DHT22;2976;49.764;9.796;2023-07-16T13:40:46;25.10;67.30
5901;DHT22;2976;49.764;9.796;2023-07-16T13:43:12;25.30;65.80
5901;DHT22;2976;49.764;9.796;2023-07-16T13:45:38;25.20;66.20
5901;DHT22;2976;49.764;9.796;2023-07-16T13:48:04;25.00;69.10
5901;DHT22;2976;49.764;9.796;2023-07-16T13:50:30;25.10;69.60
5901;DHT22;2976;49.764;9.796;2023-07-16T13:52:56;25.30;68.50
5901;DHT22;2976;49.764;9.796;2023-07-16T13:55:21;25.60;68.40
5901;DHT22;2976;49.764;9.796;2023-07-16T13:57:47;26.10;67.40
5901;DHT22;2976;49.764;9.796;2023-07-16T14:00:13;26.10;65.60
5901;DHT22;2976;49.764;9.796;2023-07-16T14:02:41;26.10;65.00
5901;DHT22;2976;49.764;9.796;2023-07-16T14:05:07;25.90;64.40
5901;DHT22;2976;49.764;9.796;2023-07-16T14:07:33;25.60;64.20
5901;DHT22;2976;49.764;9.796;2023-07-16T14:09:59;25.20;64.00
5901;DHT22;2976;49.764;9.796;2023-07-16T14:12:24;25.10;65.40
5901;DHT22;2976;49.764;9.796;2023-07-16T14:14:50;25.20;66.10
5901;DHT22;2976;49.764;9.796;2023-07-16T14:17:15;25.40;65.90
5901;DHT22;2976;49.764;9.796;2023-07-16T14:19:41;25.40;64.00
5901;DHT22;2976;49.764;9.796;2023-07-16T14:22:06;25.40;63.70
5901;DHT22;2976;49.764;9.796;2023-07-16T14:24:36;25.30;65.10
5901;DHT22;2976;49.764;9.796;2023-07-16T14:27:02;25.30;63.60
5901;DHT22;2976;49.764;9.796;2023-07-16T14:29:28;25.30;64.80
5901;DHT22;2976;49.764;9.796;2023-07-16T14:31:55;25.40;63.80
5901;DHT22;2976;49.764;9.796;2023-07-16T14:34:20;25.50;64.20
5901;DHT22;2976;49.764;9.796;2023-07-16T14:36:46;25.40;64.10
5901;DHT22;2976;49.764;9.796;2023-07-16T14:39:11;25.40;64.60
5901;DHT22;2976;49.764;9.796;2023-07-16T14:41:37;25.30;61.00
5901;DHT22;2976;49.764;9.796;2023-07-16T14:44:04;25.30;63.70
5901;DHT22;2976;49.764;9.796;2023-07-16T14:46:30;25.50;64.00
5901;DHT22;2976;49.764;9.796;2023-07-16T14:48:55;25.60;62.70
5901;DHT22;2976;49.764;9.796;2023-07-16T14:51:22;25.60;61.40
5901;DHT22;2976;49.764;9.796;2023-07-16T14:53:47;25.60;61.40
5901;DHT22;2976;49.764;9.796;2023-07-16T14:56:13;25.60;58.30
5901;DHT22;2976;49.764;9.796;2023-07-16T14:58:39;25.60;59.70
5901;DHT22;2976;49.764;9.796;2023-07-16T15:01:04;25.40;60.70
5901;DHT22;2976;49.764;9.796;2023-07-16T15:03:36;25.40;61.50
5901;DHT22;2976;49.764;9.796;2023-07-16T15:06:03;25.30;61.30
5901;DHT22;2976;49.764;9.796;2023-07-16T15:08:28;25.30;63.40
5901;DHT22;2976;49.764;9.796;2023-07-16T15:10:58;25.40;64.00
5901;DHT22;2976;49.764;9.796;2023-07-16T15:13:24;25.50;61.60
5901;DHT22;2976;49.764;9.796;2023-07-16T15:15:54;25.60;61.80
5901;DHT22;2976;49.764;9.796;2023-07-16T15:18:22;25.60;63.30
5901;DHT22;2976;49.764;9.796;2023-07-16T15:20:48;25.60;61.90
5901;DHT22;2976;49.764;9.796;2023-07-16T15:23:13;25.30;62.30
5901;DHT22;2976;49.764;9.796;2023-07-16T15:25:42;25.30;62.60
5901;DHT22;2976;49.764;9.796;2023-07-16T15:28:11;25.20;64.40
5901;DHT22;2976;49.764;9.796;2023-07-16T15:30:37;25.40;64.40
5901;DHT22;2976;49.764;9.796;2023-07-16T15:33:02;25.60;62.60
5901;DHT22;2976;49.764;9.796;2023-07-16T15:35:28;25.60;60.10
5901;DHT22;2976;49.764;9.796;2023-07-16T15:37:53;25.80;61.80
5901;DHT22;2976;49.764;9.796;2023-07-16T15:40:22;25.70;59.60
5901;DHT22;2976;49.764;9.796;2023-07-16T15:42:48;25.80;60.60
5901;DHT22;2976;49.764;9.796;2023-07-16T15:45:14;25.90;60.00
5901;DHT22;2976;49.764;9.796;2023-07-16T15:47:45;25.90;59.60
5901;DHT22;2976;49.764;9.796;2023-07-16T15:50:11;25.90;59.00
5901;DHT22;2976;49.764;9.796;2023-07-16T15:52:37;25.60;57.60
5901;DHT22;2976;49.764;9.796;2023-07-16T15:55:03;25.60;58.70
5901;DHT22;2976;49.764;9.796;2023-07-16T15:57:30;25.70;59.90
5901;DHT22;2976;49.764;9.796;2023-07-16T15:59:57;25.80;58.90
5901;DHT22;2976;49.764;9.796;2023-07-16T16:02:23;25.80;60.20
5901;DHT22;2976;49.764;9.796;2023-07-16T16:04:49;25.80;59.20
5901;DHT22;2976;49.764;9.796;2023-07-16T16:07:15;25.60;58.50